Time;durP1;ratioP1;P1;durP2;ratioP2;P2;SDS_P1;SDS_P2;PMS_P1;PMS_P2;Temp;Humidity;BMP_temperature;BMP_pressure;BME280_temperature;BME280_humidity;BME280_pressure;Samples;Min_cycle;Max_cycle;Signal;HPM_P1;HPM_P2
2021/12/30 00:00:43;;;;;;;5.15;1.40;;;12.30;99.90;;;;;;5034087;28;20014;-48
2021/12/30 00:03:09;;;;;;;1.88;1.45;;;12.30;99.90;;;;;;5034173;28;20028;-50
2021/12/30 00:05:36;;;;;;;2.28;1.45;;;12.30;99.90;;;;;;5033297;28;20032;-49
2021/12/30 00:08:02;;;;;;;5.75;1.45;;;12.30;99.90;;;;;;5034138;28;20025;-50
2021/12/30 00:10:28;;;;;;;1.92;1.10;;;12.30;99.90;;;;;;5032752;28;20091;-48
2021/12/30 00:12:54;;;;;;;2.50;1.23;;;12.30;99.90;;;;;;5033972;28;20060;-50
2021/12/30 00:15:21;;;;;;;7.95;1.88;;;12.30;99.90;;;;;;5034360;28;20055;-50
2021/12/30 00:17:47;;;;;;;7.10;2.10;;;12.30;99.90;;;;;;5033838;28;20079;-48
2021/12/30 00:20:13;;;;;;;4.97;1.77;;;12.30;99.90;;;;;;5032943;28;20021;-48
2021/12/30 00:22:41;;;;;;;6.22;1.73;;;12.20;99.90;;;;;;5034049;28;20032;-48
2021/12/30 00:25:07;;;;;;;6.90;1.00;;;12.20;99.90;;;;;;5033873;28;20075;-50
2021/12/30 00:27:46;;;;;;;3.05;1.60;;;12.20;99.90;;;;;;5032410;28;20025;-51
2021/12/30 00:30:13;;;;;;;5.35;1.50;;;12.20;99.90;;;;;;5032717;28;20087;-48
2021/12/30 00:32:39;;;;;;;7.28;1.75;;;12.20;99.90;;;;;;5032172;28;20040;-48
2021/12/30 00:35:06;;;;;;;2.53;1.00;;;12.10;99.90;;;;;;5033631;28;20104;-48
2021/12/30 00:37:32;;;;;;;4.15;1.27;;;12.20;99.90;;;;;;5033352;28;20393;-49
2021/12/30 00:40:20;;;;;;;4.85;1.25;;;12.20;99.90;;;;;;5033621;28;20018;-48
2021/12/30 00:42:46;;;;;;;3.00;1.10;;;12.20;99.90;;;;;;5033553;28;20025;-51
2021/12/30 00:45:12;;;;;;;9.18;1.60;;;12.20;99.90;;;;;;5033713;28;20029;-49
2021/12/30 00:47:37;;;;;;;6.95;1.42;;;12.20;99.90;;;;;;5033428;28;20428;-51
2021/12/30 00:50:04;;;;;;;6.45;1.40;;;12.30;99.90;;;;;;5032181;28;20034;-49
2021/12/30 00:52:29;;;;;;;7.75;1.80;;;12.30;99.90;;;;;;5032182;28;20519;-49
2021/12/30 00:54:55;;;;;;;3.25;1.20;;;12.30;99.90;;;;;;5032503;28;20116;-48
2021/12/30 00:57:20;;;;;;;4.55;1.52;;;12.30;99.90;;;;;;5031979;28;20025;-52
2021/12/30 00:59:46;;;;;;;8.95;1.80;;;12.20;99.90;;;;;;5032078;28;20061;-48
2021/12/30 01:02:12;;;;;;;9.45;2.03;;;12.20;99.90;;;;;;5032063;28;20028;-48
2021/12/30 01:04:37;;;;;;;7.90;1.27;;;12.20;99.90;;;;;;5033563;28;20053;-48
2021/12/30 01:07:03;;;;;;;8.88;1.95;;;12.20;99.90;;;;;;5032236;28;20060;-49
2021/12/30 01:09:29;;;;;;;7.18;1.55;;;12.20;99.90;;;;;;5031944;28;20480;-48
2021/12/30 01:11:56;;;;;;;8.07;2.08;;;12.20;99.90;;;;;;5032032;28;20029;-49
2021/12/30 01:14:25;;;;;;;12.05;2.13;;;12.20;99.90;;;;;;5031919;28;20029;-49
2021/12/30 01:16:54;;;;;;;9.32;2.47;;;12.20;99.90;;;;;;5032494;28;20025;-48
2021/12/30 01:21:47;;;;;;;9.23;2.10;;;12.20;99.90;;;;;;5033416;28;20033;-49
2021/12/30 01:24:13;;;;;;;6.40;1.65;;;12.20;99.90;;;;;;5033160;28;20018;-51
2021/12/30 01:26:38;;;;;;;14.32;2.28;;;12.20;99.90;;;;;;5032927;28;20101;-50
2021/12/30 01:29:04;;;;;;;7.40;2.13;;;12.20;99.90;;;;;;5032090;28;20057;-50
2021/12/30 01:31:30;;;;;;;6.80;1.73;;;12.20;99.90;;;;;;5031801;28;20080;-53
2021/12/30 01:33:56;;;;;;;7.57;1.63;;;12.20;99.90;;;;;;5033028;28;20030;-48
2021/12/30 01:36:25;;;;;;;8.70;1.40;;;12.20;99.90;;;;;;5031893;28;20036;-50
2021/12/30 01:38:52;;;;;;;7.75;1.60;;;12.20;99.90;;;;;;5031744;28;20067;-48
2021/12/30 01:41:17;;;;;;;8.25;1.60;;;12.10;99.90;;;;;;5032977;28;20018;-49
2021/12/30 01:43:43;;;;;;;8.90;2.30;;;12.10;99.90;;;;;;5032916;28;20084;-48
2021/12/30 01:46:09;;;;;;;10.52;2.00;;;12.00;99.90;;;;;;5032818;28;20029;-50
2021/12/30 01:48:35;;;;;;;8.50;2.10;;;12.00;99.90;;;;;;5031619;28;20475;-49
2021/12/30 01:51:02;;;;;;;12.82;2.28;;;12.00;99.90;;;;;;5032818;28;20036;-51
2021/12/30 01:53:28;;;;;;;4.50;1.40;;;12.00;99.90;;;;;;5033421;28;20021;-48
2021/12/30 01:55:54;;;;;;;12.43;1.73;;;12.00;99.90;;;;;;5032724;28;20028;-50
2021/12/30 01:58:20;;;;;;;7.78;1.80;;;12.00;99.90;;;;;;5032760;28;20030;-50
2021/12/30 02:00:48;;;;;;;7.88;1.88;;;12.00;99.90;;;;;;5031505;28;20025;-53
2021/12/30 02:03:15;;;;;;;10.73;2.10;;;12.00;99.90;;;;;;5032736;28;20022;-48
2021/12/30 02:05:42;;;;;;;8.80;2.20;;;12.00;99.90;;;;;;5033732;28;20025;-50
2021/12/30 02:08:12;;;;;;;7.55;1.70;;;12.00;99.90;;;;;;5035066;28;20025;-51
2021/12/30 02:10:40;;;;;;;8.80;2.15;;;12.00;99.90;;;;;;5036389;28;20021;-51
2021/12/30 02:13:06;;;;;;;6.13;1.70;;;12.00;99.90;;;;;;5035407;28;20022;-51
2021/12/30 02:15:32;;;;;;;12.57;2.08;;;12.00;99.90;;;;;;5035105;28;20025;-50
2021/12/30 02:17:59;;;;;;;7.80;2.30;;;12.00;99.90;;;;;;5035034;28;20030;-49
2021/12/30 02:20:45;;;;;;;9.32;2.05;;;12.00;99.90;;;;;;5035276;28;20049;-53
2021/12/30 02:23:24;;;;;;;5.07;1.67;;;12.00;99.90;;;;;;5035678;28;20021;-50
2021/12/30 02:25:52;;;;;;;9.77;1.70;;;12.00;99.90;;;;;;5034848;28;20021;-51
2021/12/30 02:28:19;;;;;;;11.18;1.90;;;12.00;99.90;;;;;;5034958;28;20029;-52
2021/12/30 02:30:45;;;;;;;8.88;1.83;;;12.00;99.90;;;;;;5034674;28;20025;-52
2021/12/30 02:33:11;;;;;;;12.57;2.50;;;12.00;99.90;;;;;;5034718;28;20488;-50
2021/12/30 02:35:37;;;;;;;17.38;1.95;;;12.00;99.90;;;;;;5036120;28;20025;-51
2021/12/30 02:38:04;;;;;;;6.80;1.60;;;12.00;99.90;;;;;;5034373;28;20032;-50
2021/12/30 02:40:37;;;;;;;10.90;1.60;;;12.00;99.90;;;;;;5035840;28;20060;-49
2021/12/30 02:43:11;;;;;;;9.38;2.15;;;12.00;99.90;;;;;;5035072;28;20025;-50
2021/12/30 02:45:37;;;;;;;6.68;1.80;;;12.00;99.90;;;;;;5035772;28;20029;-53
2021/12/30 02:48:02;;;;;;;12.65;2.33;;;12.00;99.90;;;;;;5034365;28;20025;-52
2021/12/30 02:50:29;;;;;;;13.07;1.95;;;12.00;99.90;;;;;;5035762;28;20025;-52
2021/12/30 02:52:55;;;;;;;8.23;1.58;;;12.00;99.90;;;;;;5034277;28;20120;-52
2021/12/30 02:55:21;;;;;;;6.10;1.80;;;12.00;99.90;;;;;;5035540;28;20151;-48
2021/12/30 02:57:46;;;;;;;8.65;2.35;;;11.90;99.90;;;;;;5034079;28;20026;-53
2021/12/30 03:00:13;;;;;;;6.53;1.65;;;11.90;99.90;;;;;;5034460;28;20029;-51
2021/12/30 03:02:39;;;;;;;6.93;2.63;;;11.90;99.90;;;;;;5035624;28;20025;-52
2021/12/30 03:05:22;;;;;;;7.15;2.55;;;11.80;99.90;;;;;;5035338;28;20048;-49
2021/12/30 03:07:48;;;;;;;10.20;2.58;;;11.80;99.90;;;;;;5035262;28;20022;-49
2021/12/30 03:10:20;;;;;;;12.02;3.35;;;11.80;99.90;;;;;;5034869;28;20037;-48
2021/12/30 03:12:51;;;;;;;7.47;2.03;;;11.80;99.90;;;;;;5033817;28;20030;-50
2021/12/30 03:15:17;;;;;;;9.05;2.05;;;11.80;99.90;;;;;;5033576;28;20032;-51
2021/12/30 03:17:43;;;;;;;4.60;1.83;;;11.70;99.90;;;;;;5034944;28;20030;-54
2021/12/30 03:20:09;;;;;;;15.43;1.92;;;11.70;99.90;;;;;;5035006;28;20029;-55
2021/12/30 03:22:40;;;;;;;12.60;3.25;;;11.80;99.90;;;;;;5034841;28;20029;-50
2021/12/30 03:25:08;;;;;;;12.00;1.90;;;11.70;99.90;;;;;;5033987;28;20079;-54
2021/12/30 03:27:34;;;;;;;8.75;1.50;;;11.70;99.90;;;;;;5034904;28;20036;-49
2021/12/30 03:30:00;;;;;;;13.25;2.10;;;11.80;99.90;;;;;;5034873;28;20036;-49
2021/12/30 03:32:26;;;;;;;7.88;1.60;;;11.70;99.90;;;;;;5035146;28;20026;-51
2021/12/30 03:34:52;;;;;;;11.00;1.80;;;11.70;99.90;;;;;;5034783;28;20032;-53
2021/12/30 03:37:18;;;;;;;9.82;2.15;;;11.60;99.90;;;;;;5034557;28;20100;-50
2021/12/30 03:39:44;;;;;;;7.68;1.52;;;11.60;99.90;;;;;;5033432;28;20071;-52
2021/12/30 03:42:10;;;;;;;10.93;1.83;;;11.60;99.90;;;;;;5033365;28;20136;-53
2021/12/30 03:44:36;;;;;;;14.85;3.67;;;11.60;99.90;;;;;;5034600;28;20053;-54
2021/12/30 03:47:02;;;;;;;10.57;2.30;;;11.60;99.90;;;;;;5034747;28;20120;-54
2021/12/30 03:49:27;;;;;;;11.70;2.40;;;11.60;99.90;;;;;;5034414;28;20021;-54
2021/12/30 03:51:54;;;;;;;8.57;2.00;;;11.60;99.90;;;;;;5034894;28;20034;-51
2021/12/30 03:54:21;;;;;;;17.40;5.00;;;11.70;99.90;;;;;;5034687;28;20049;-54
2021/12/30 03:56:47;;;;;;;4.43;1.50;;;11.80;99.90;;;;;;5032940;28;20170;-54
2021/12/30 03:59:13;;;;;;;11.43;1.48;;;11.90;99.90;;;;;;5034324;28;20024;-55
2021/12/30 04:01:39;;;;;;;10.48;3.25;;;11.90;99.90;;;;;;5034201;28;20049;-55
2021/12/30 04:04:05;;;;;;;12.85;3.83;;;12.00;99.90;;;;;;5034550;28;20049;-53
2021/12/30 04:06:31;;;;;;;9.90;2.25;;;12.00;99.90;;;;;;5032804;28;20081;-53
2021/12/30 04:08:58;;;;;;;8.77;1.90;;;12.00;99.90;;;;;;5034018;28;20049;-54
2021/12/30 04:11:33;;;;;;;6.70;1.83;;;12.00;99.90;;;;;;5034040;28;20030;-55
2021/12/30 04:14:00;;;;;;;8.77;2.50;;;12.00;99.90;;;;;;5032848;28;20026;-54
2021/12/30 04:16:25;;;;;;;11.30;1.48;;;12.00;99.90;;;;;;5033876;28;20018;-50
2021/12/30 04:18:51;;;;;;;5.50;1.50;;;12.00;99.90;;;;;;5034289;28;20060;-50
2021/12/30 04:21:18;;;;;;;8.90;1.70;;;12.00;99.90;;;;;;5032627;28;20018;-49
2021/12/30 04:23:45;;;;;;;6.93;1.77;;;12.00;99.90;;;;;;5034082;28;20029;-50
2021/12/30 04:26:11;;;;;;;11.57;1.55;;;12.00;99.90;;;;;;5033729;28;20068;-49
2021/12/30 04:28:36;;;;;;;5.43;1.35;;;12.00;99.90;;;;;;5033117;28;20053;-49
2021/12/30 04:31:02;;;;;;;5.80;1.30;;;12.00;99.90;;;;;;5032389;28;20025;-49
2021/12/30 04:33:28;;;;;;;9.13;1.75;;;12.00;99.90;;;;;;5033699;28;20026;-48
2021/12/30 04:35:57;;;;;;;6.65;1.50;;;12.00;99.90;;;;;;5033822;28;20524;-48
2021/12/30 04:38:32;;;;;;;7.32;1.65;;;12.00;99.90;;;;;;5033794;28;20033;-50
2021/12/30 04:40:59;;;;;;;8.27;1.70;;;12.00;99.90;;;;;;5032524;28;20021;-49
2021/12/30 04:43:24;;;;;;;9.07;2.17;;;12.00;99.90;;;;;;5033596;28;20021;-50
2021/12/30 04:45:51;;;;;;;7.80;1.65;;;12.00;99.90;;;;;;5032618;28;20089;-48
2021/12/30 04:49:02;;;;;;;12.25;1.90;;;12.00;99.90;;;;;;5033496;28;20052;-48
2021/12/30 04:51:28;;;;;;;11.65;1.42;;;12.00;99.90;;;;;;5033773;28;20393;-49
2021/12/30 04:53:53;;;;;;;7.03;1.90;;;12.00;99.90;;;;;;5033667;28;20530;-50
2021/12/30 04:56:19;;;;;;;8.98;1.40;;;12.00;99.90;;;;;;5031963;28;20029;-48
2021/12/30 04:58:45;;;;;;;9.05;2.25;;;12.00;99.90;;;;;;5032208;28;20049;-50
2021/12/30 05:01:10;;;;;;;8.52;1.98;;;12.00;99.90;;;;;;5033438;28;20053;-48
2021/12/30 05:03:36;;;;;;;8.57;1.42;;;11.90;99.90;;;;;;5033329;28;20021;-49
2021/12/30 05:06:02;;;;;;;8.52;1.50;;;11.90;99.90;;;;;;5032299;28;20029;-50
2021/12/30 05:08:28;;;;;;;9.38;1.20;;;11.90;99.90;;;;;;5033385;28;20025;-50
2021/12/30 05:10:54;;;;;;;5.95;1.35;;;11.90;99.90;;;;;;5032377;28;20025;-48
2021/12/30 05:13:19;;;;;;;10.60;1.60;;;12.00;99.90;;;;;;5033300;28;20079;-50
2021/12/30 05:15:47;;;;;;;5.65;1.45;;;12.00;99.90;;;;;;5033487;28;20105;-49
2021/12/30 05:18:14;;;;;;;9.23;1.48;;;12.10;99.90;;;;;;5031835;28;20028;-48
2021/12/30 05:20:41;;;;;;;8.00;1.48;;;12.10;99.90;;;;;;5033234;28;20018;-49
2021/12/30 05:23:08;;;;;;;7.60;1.85;;;12.10;99.90;;;;;;5032718;28;20026;-51
2021/12/30 05:25:33;;;;;;;2.38;1.13;;;12.10;99.90;;;;;;5031872;28;20025;-49
2021/12/30 05:27:59;;;;;;;8.68;1.55;;;12.10;99.90;;;;;;5033019;28;20025;-49
2021/12/30 05:30:25;;;;;;;9.63;1.63;;;12.10;99.90;;;;;;5033065;28;20053;-48
2021/12/30 05:32:56;;;;;;;9.50;1.60;;;12.20;99.90;;;;;;5031825;28;20116;-48
2021/12/30 05:35:23;;;;;;;3.88;0.70;;;12.20;99.90;;;;;;5033085;28;20100;-50
2021/12/30 05:37:49;;;;;;;7.30;1.58;;;12.30;99.90;;;;;;5032783;28;20120;-52
2021/12/30 05:40:20;;;;;;;11.73;2.10;;;12.20;99.90;;;;;;5036295;28;20032;-48
2021/12/30 05:42:46;;;;;;;8.95;1.95;;;12.20;99.90;;;;;;5035709;28;20028;-49
2021/12/30 05:45:14;;;;;;;12.90;1.30;;;12.20;99.90;;;;;;5036851;28;20022;-48
2021/12/30 05:47:41;;;;;;;11.05;1.27;;;12.20;99.90;;;;;;5035507;28;20040;-48
2021/12/30 05:50:08;;;;;;;1.67;0.70;;;12.20;99.90;;;;;;5036704;28;20048;-54
2021/12/30 05:52:34;;;;;;;6.60;1.00;;;12.30;99.90;;;;;;5036187;28;20074;-51
2021/12/30 05:55:00;;;;;;;5.75;0.90;;;12.30;99.90;;;;;;5036667;28;20053;-49
2021/12/30 05:57:26;;;;;;;4.22;0.90;;;12.30;99.90;;;;;;5036527;28;20100;-48
2021/12/30 05:59:51;;;;;;;4.20;0.90;;;12.40;99.90;;;;;;5036891;28;20105;-48
2021/12/30 06:02:17;;;;;;;2.67;0.95;;;12.40;99.90;;;;;;5035593;28;20028;-48
2021/12/30 06:04:43;;;;;;;5.85;1.15;;;12.50;99.90;;;;;;5035174;28;20032;-49
2021/12/30 06:07:10;;;;;;;3.83;0.77;;;12.50;99.90;;;;;;5035372;28;20079;-48
2021/12/30 06:09:36;;;;;;;6.75;1.08;;;12.50;99.90;;;;;;5035305;28;20033;-48
2021/12/30 06:12:02;;;;;;;3.58;0.73;;;12.50;99.90;;;;;;5036603;28;20025;-51
2021/12/30 06:14:28;;;;;;;3.72;0.95;;;12.50;99.90;;;;;;5035832;28;20025;-50
2021/12/30 06:16:53;;;;;;;5.05;0.82;;;12.50;99.90;;;;;;5036093;28;20036;-48
2021/12/30 06:19:19;;;;;;;4.28;0.95;;;12.50;99.90;;;;;;5035021;28;20487;-50
2021/12/30 06:21:45;;;;;;;6.20;0.82;;;12.40;99.90;;;;;;5035038;28;20135;-48
2021/12/30 06:24:11;;;;;;;2.78;0.82;;;12.40;99.90;;;;;;5036168;28;20100;-49
2021/12/30 06:26:37;;;;;;;2.33;0.80;;;12.40;99.90;;;;;;5036041;28;20117;-50
2021/12/30 06:29:03;;;;;;;4.38;0.75;;;12.40;99.90;;;;;;5034771;28;20025;-48
2021/12/30 06:31:29;;;;;;;6.72;0.57;;;12.50;99.90;;;;;;5035982;28;20032;-49
2021/12/30 06:33:55;;;;;;;2.72;0.47;;;12.50;99.90;;;;;;5035613;28;20030;-48
2021/12/30 06:36:21;;;;;;;2.80;0.60;;;12.50;99.90;;;;;;5034923;28;20117;-50
2021/12/30 06:38:48;;;;;;;4.10;0.65;;;12.50;99.90;;;;;;5035781;28;20024;-52
2021/12/30 06:41:14;;;;;;;4.93;1.25;;;12.50;99.90;;;;;;5035802;28;20108;-49
2021/12/30 06:43:39;;;;;;;8.27;3.40;;;12.40;99.90;;;;;;5034889;28;20109;-49
2021/12/30 06:46:05;;;;;;;12.43;4.95;;;12.40;99.90;;;;;;5034907;28;20021;-48
2021/12/30 06:48:31;;;;;;;4.88;2.03;;;12.30;99.90;;;;;;5036183;28;20388;-51
2021/12/30 06:50:59;;;;;;;5.38;1.35;;;12.20;99.90;;;;;;5033594;28;20033;-50
2021/12/30 06:53:25;;;;;;;4.20;0.70;;;12.20;99.90;;;;;;5034405;28;20034;-48
2021/12/30 06:55:52;;;;;;;3.53;0.93;;;12.20;99.90;;;;;;5035948;28;20033;-49
2021/12/30 06:58:18;;;;;;;3.15;0.47;;;12.30;99.90;;;;;;5034276;28;20022;-48
2021/12/30 07:00:45;;;;;;;2.50;0.68;;;12.30;99.90;;;;;;5035776;28;20044;-50
2021/12/30 07:03:10;;;;;;;8.07;0.93;;;12.30;99.90;;;;;;5035285;28;20021;-48
2021/12/30 07:05:36;;;;;;;4.15;0.70;;;12.40;99.90;;;;;;5034096;28;20022;-48
2021/12/30 07:08:02;;;;;;;1.85;0.50;;;12.40;99.90;;;;;;5033994;28;20026;-49
2021/12/30 07:10:28;;;;;;;4.53;0.60;;;12.50;99.90;;;;;;5035302;28;20037;-48
2021/12/30 07:12:54;;;;;;;1.88;0.55;;;12.50;99.90;;;;;;5033987;28;20053;-48
2021/12/30 07:15:20;;;;;;;1.02;0.65;;;12.50;99.90;;;;;;5035210;28;20507;-48
2021/12/30 07:17:47;;;;;;;1.85;1.00;;;12.60;99.90;;;;;;5033795;28;20073;-51
2021/12/30 07:20:13;;;;;;;1.90;0.52;;;12.60;99.90;;;;;;5034723;28;20112;-49
2021/12/30 07:22:40;;;;;;;3.33;0.65;;;12.70;99.90;;;;;;5034686;28;20113;-48
2021/12/30 07:25:09;;;;;;;1.63;0.70;;;12.80;99.90;;;;;;5035005;28;20044;-52
2021/12/30 07:27:35;;;;;;;1.45;0.50;;;12.80;99.90;;;;;;5034957;28;20064;-48
2021/12/30 07:30:01;;;;;;;5.15;0.77;;;12.80;99.90;;;;;;5033650;28;20029;-49
2021/12/30 07:32:27;;;;;;;4.60;1.30;;;12.80;99.90;;;;;;5035140;28;20092;-53
2021/12/30 07:34:53;;;;;;;7.22;1.13;;;12.90;99.90;;;;;;5034885;28;20049;-51
2021/12/30 07:37:19;;;;;;;5.15;3.25;;;12.90;99.90;;;;;;5033355;28;20060;-48
2021/12/30 07:39:47;;;;;;;4.85;1.00;;;12.90;99.90;;;;;;5034784;28;20026;-51
2021/12/30 07:42:13;;;;;;;0.85;0.70;;;12.90;99.90;;;;;;5033660;28;20018;-52
2021/12/30 07:44:39;;;;;;;1.20;0.73;;;13.00;99.90;;;;;;5034187;28;20025;-49
2021/12/30 07:47:07;;;;;;;2.38;1.17;;;13.00;99.90;;;;;;5033603;28;20041;-50
2021/12/30 07:49:35;;;;;;;1.80;0.52;;;13.00;99.90;;;;;;5033385;28;20056;-51
2021/12/30 07:52:01;;;;;;;1.02;0.75;;;13.10;99.90;;;;;;5033145;28;20087;-50
2021/12/30 07:54:26;;;;;;;2.95;1.38;;;13.10;99.90;;;;;;5033102;28;20029;-49
2021/12/30 07:56:52;;;;;;;0.40;0.40;;;13.20;99.90;;;;;;5033007;28;20396;-48
2021/12/30 07:59:17;;;;;;;3.00;0.60;;;13.20;99.90;;;;;;5033102;28;20022;-50
2021/12/30 08:01:43;;;;;;;0.68;0.35;;;13.30;99.90;;;;;;5032940;28;20021;-48
2021/12/30 08:04:09;;;;;;;2.15;0.85;;;13.30;99.90;;;;;;5032441;28;20100;-53
2021/12/30 08:06:34;;;;;;;2.03;1.27;;;13.30;99.90;;;;;;5034057;28;20044;-53
2021/12/30 08:09:00;;;;;;;2.08;0.73;;;13.40;99.90;;;;;;5034407;28;20101;-48
2021/12/30 08:11:26;;;;;;;2.83;0.50;;;13.40;99.90;;;;;;5032908;28;20018;-53
2021/12/30 08:13:52;;;;;;;1.40;0.82;;;13.50;99.90;;;;;;5032861;28;20022;-49
2021/12/30 08:16:17;;;;;;;1.67;1.23;;;13.50;99.90;;;;;;5034263;28;20022;-49
2021/12/30 08:18:43;;;;;;;1.15;0.70;;;13.50;99.90;;;;;;5033564;28;20063;-53
2021/12/30 08:21:10;;;;;;;0.68;0.60;;;13.50;99.90;;;;;;5032822;28;20472;-51
2021/12/30 08:23:35;;;;;;;0.73;0.40;;;13.60;99.90;;;;;;5032589;28;20030;-50
2021/12/30 08:26:03;;;;;;;0.63;0.20;;;13.60;99.90;;;;;;5033381;28;20072;-48
2021/12/30 08:28:29;;;;;;;2.00;0.45;;;13.60;99.90;;;;;;5033844;28;20025;-53
2021/12/30 08:30:54;;;;;;;2.10;0.30;;;13.70;99.90;;;;;;5032527;28;20034;-51
2021/12/30 08:33:20;;;;;;;0.70;0.50;;;13.70;99.90;;;;;;5033564;28;20080;-49
2021/12/30 08:35:46;;;;;;;9.50;4.32;;;13.80;99.90;;;;;;5032546;28;20403;-52
2021/12/30 08:38:13;;;;;;;18.35;9.30;;;13.80;99.90;;;;;;5033486;28;20041;-54
2021/12/30 08:40:39;;;;;;;14.65;8.07;;;13.80;99.90;;;;;;5032512;28;20017;-52
2021/12/30 08:43:06;;;;;;;3.58;2.28;;;13.90;99.90;;;;;;5033582;28;20017;-54
2021/12/30 08:45:34;;;;;;;4.05;2.63;;;13.90;99.90;;;;;;5023285;28;20018;-50
2021/12/30 08:48:00;;;;;;;1.92;1.70;;;13.90;99.90;;;;;;5012372;28;20034;-50
2021/12/30 08:50:26;;;;;;;7.72;5.00;;;14.00;99.90;;;;;;5012824;28;20033;-52
2021/12/30 08:52:51;;;;;;;7.97;4.75;;;14.10;99.90;;;;;;5013594;28;20037;-49
2021/12/30 08:55:19;;;;;;;10.57;6.40;;;14.10;99.90;;;;;;5012448;28;20026;-52
2021/12/30 08:57:47;;;;;;;19.30;10.40;;;14.20;99.90;;;;;;5013902;28;20095;-52
2021/12/30 09:00:26;;;;;;;7.28;5.05;;;14.20;99.90;;;;;;5012302;28;20033;-52
2021/12/30 09:02:54;;;;;;;8.02;5.03;;;14.20;99.90;;;;;;5013311;28;20029;-54
2021/12/30 09:05:56;;;;;;;5.88;0.98;;;14.20;99.90;;;;;;5012586;28;20072;-51
2021/12/30 09:08:22;;;;;;;1.45;1.35;;;14.30;99.90;;;;;;5012207;28;20026;-50
2021/12/30 09:10:49;;;;;;;0.98;0.90;;;14.40;99.90;;;;;;5012149;28;20088;-48
2021/12/30 09:13:24;;;;;;;1.77;1.40;;;14.40;99.90;;;;;;5029039;28;20030;-49
2021/12/30 09:15:50;;;;;;;2.22;1.20;;;14.50;99.90;;;;;;5036191;28;20025;-48
2021/12/30 09:18:16;;;;;;;1.67;1.08;;;14.50;99.90;;;;;;5035792;28;20033;-51
2021/12/30 09:20:51;;;;;;;2.50;0.73;;;14.60;99.90;;;;;;5035989;28;20022;-49
2021/12/30 09:23:16;;;;;;;1.50;1.33;;;14.70;99.90;;;;;;5036512;28;20021;-49
2021/12/30 09:25:42;;;;;;;1.58;1.20;;;14.70;99.90;;;;;;5037217;28;20028;-51
2021/12/30 09:28:11;;;;;;;0.93;0.60;;;14.80;99.90;;;;;;5036030;28;20033;-48
2021/12/30 09:30:37;;;;;;;1.30;0.80;;;14.80;99.90;;;;;;5025598;28;20500;-49
2021/12/30 09:33:16;;;;;;;0.65;0.40;;;14.80;99.90;;;;;;5017243;28;20026;-51
2021/12/30 09:35:44;;;;;;;0.40;0.30;;;14.80;99.90;;;;;;5017253;28;20045;-55
2021/12/30 09:38:11;;;;;;;5.63;0.60;;;14.80;99.90;;;;;;5016998;28;20100;-55
2021/12/30 09:40:36;;;;;;;3.50;0.90;;;14.90;99.90;;;;;;5015941;28;20037;-51
2021/12/30 09:43:04;;;;;;;0.50;0.40;;;14.90;99.90;;;;;;5016114;28;20026;-51
2021/12/30 09:48:51;;;;;;;4.15;0.90;;;15.00;99.90;;;;;;5017353;28;20101;-50
2021/12/30 09:51:18;;;;;;;1.52;0.88;;;15.10;99.90;;;;;;5015622;28;20042;-53
2021/12/30 09:53:43;;;;;;;0.80;0.50;;;15.10;99.90;;;;;;5015763;28;20648;-48
2021/12/30 09:56:38;;;;;;;1.17;0.50;;;15.10;99.90;;;;;;5015940;28;20090;-52
2021/12/30 09:59:04;;;;;;;2.08;1.05;;;15.20;99.90;;;;;;5016858;28;20034;-49
2021/12/30 10:01:30;;;;;;;4.80;1.70;;;15.30;99.90;;;;;;5015461;28;20068;-51
2021/12/30 10:03:57;;;;;;;3.55;1.70;;;15.40;99.90;;;;;;5016696;28;20052;-53
2021/12/30 10:06:23;;;;;;;3.15;1.33;;;15.40;99.90;;;;;;5015936;28;20053;-50
2021/12/30 10:09:11;;;;;;;0.50;0.30;;;15.40;99.90;;;;;;5016633;28;20025;-50
2021/12/30 10:11:51;;;;;;;1.40;0.50;;;15.50;99.90;;;;;;5015229;28;20037;-52
2021/12/30 10:14:34;;;;;;;4.78;0.93;;;15.50;99.90;;;;;;5015495;28;20025;-56
2021/12/30 10:17:20;;;;;;;1.27;0.80;;;15.50;99.90;;;;;;5015493;28;20055;-53
2021/12/30 10:19:46;;;;;;;2.10;0.98;;;15.50;99.90;;;;;;5015219;28;20473;-50
2021/12/30 10:22:13;;;;;;;0.63;0.50;;;15.50;99.90;;;;;;5015412;28;20025;-50
2021/12/30 10:24:39;;;;;;;1.40;0.45;;;15.50;99.90;;;;;;5016050;28;20026;-51
2021/12/30 10:27:38;;;;;;;1.98;0.20;;;15.40;99.90;;;;;;5014007;28;20030;-52
2021/12/30 10:30:05;;;;;;;0.40;0.20;;;15.40;99.90;;;;;;5015293;28;20099;-51
2021/12/30 10:32:31;;;;;;;0.10;0.10;;;15.40;99.90;;;;;;5015297;28;20061;-49
2021/12/30 10:35:12;;;;;;;0.32;0.10;;;15.40;99.90;;;;;;5016414;28;20057;-49
2021/12/30 10:37:42;;;;;;;1.38;0.60;;;15.30;99.90;;;;;;5015091;28;20025;-49
2021/12/30 10:40:27;;;;;;;0.35;0.28;;;15.30;99.90;;;;;;5014767;28;20057;-53
2021/12/30 10:43:17;;;;;;;2.22;0.40;;;15.30;99.90;;;;;;5016052;28;20025;-50
2021/12/30 10:45:43;;;;;;;0.82;0.35;;;15.40;99.90;;;;;;5014734;28;20022;-49
2021/12/30 10:48:09;;;;;;;0.60;0.25;;;15.40;99.90;;;;;;5014556;28;20098;-52
2021/12/30 10:50:35;;;;;;;0.10;0.10;;;15.40;99.90;;;;;;5015946;28;20523;-52
2021/12/30 10:53:01;;;;;;;0.40;0.20;;;15.40;99.90;;;;;;5014819;28;20037;-51
2021/12/30 10:55:26;;;;;;;0.88;0.45;;;15.40;99.90;;;;;;5015831;28;20034;-51
2021/12/30 10:57:53;;;;;;;0.47;0.35;;;15.50;99.90;;;;;;5015528;28;20061;-50
2021/12/30 11:00:34;;;;;;;1.65;0.22;;;15.40;99.90;;;;;;5014762;28;20105;-51
2021/12/30 11:03:21;;;;;;;0.40;0.40;;;15.40;99.90;;;;;;5014453;28;20018;-50
2021/12/30 11:09:15;;;;;;;0.57;0.40;;;15.40;99.90;;;;;;5015820;28;20067;-53
2021/12/30 11:11:47;;;;;;;1.63;0.75;;;15.50;99.90;;;;;;5014521;28;20535;-56
2021/12/30 11:14:16;;;;;;;0.70;0.40;;;15.50;99.90;;;;;;5015376;28;20092;-55
2021/12/30 11:16:51;;;;;;;0.57;0.38;;;15.50;99.90;;;;;;5013906;28;20029;-53
2021/12/30 11:19:48;;;;;;;0.57;0.45;;;15.60;99.90;;;;;;5014337;28;20069;-56
2021/12/30 11:22:19;;;;;;;0.80;0.50;;;15.60;99.90;;;;;;5015311;28;20101;-52
2021/12/30 11:24:46;;;;;;;1.10;0.55;;;15.60;99.90;;;;;;5014305;28;20385;-53
2021/12/30 11:27:14;;;;;;;1.40;0.90;;;15.70;99.90;;;;;;5013816;28;20034;-55
2021/12/30 11:29:43;;;;;;;1.70;0.63;;;15.70;99.90;;;;;;5015008;28;20108;-57
2021/12/30 11:32:21;;;;;;;0.60;0.52;;;15.70;99.90;;;;;;5014039;28;20033;-57
2021/12/30 11:34:47;;;;;;;0.70;0.60;;;15.80;99.90;;;;;;5014839;28;20104;-54
2021/12/30 11:37:14;;;;;;;0.55;0.40;;;15.90;99.90;;;;;;5013419;28;20080;-51
2021/12/30 11:39:48;;;;;;;0.20;0.20;;;15.90;99.90;;;;;;5014888;28;20025;-54
2021/12/30 11:42:24;;;;;;;0.55;0.50;;;15.90;99.90;;;;;;5013580;28;20022;-51
2021/12/30 11:44:53;;;;;;;1.08;0.52;;;16.00;99.90;;;;;;5014765;28;20024;-55
2021/12/30 11:47:34;;;;;;;1.42;0.68;;;15.90;99.90;;;;;;5014854;28;20022;-53
2021/12/30 11:50:04;;;;;;;0.90;0.90;;;16.00;99.90;;;;;;5015056;28;20049;-51
2021/12/30 11:52:53;;;;;;;1.27;0.40;;;16.00;99.90;;;;;;5014816;28;20108;-50
2021/12/30 11:56:07;;;;;;;0.38;0.38;;;16.00;99.90;;;;;;5013339;28;20026;-56
2021/12/30 12:01:04;;;;;;;1.20;0.82;;;16.10;99.90;;;;;;5014781;28;20018;-53
2021/12/30 12:03:36;;;;;;;0.50;0.50;;;16.00;99.90;;;;;;5013121;28;20038;-56
2021/12/30 12:06:04;;;;;;;;;;;16.00;99.90;;;;;;5013451;28;20018;-51
2021/12/30 12:08:41;;;;;;;1.75;0.80;;;16.00;99.90;;;;;;5013502;28;19905;-56
2021/12/30 12:11:13;;;;;;;1.30;0.68;;;16.00;99.90;;;;;;5013549;28;20021;-54
2021/12/30 12:13:41;;;;;;;1.38;0.50;;;16.00;99.90;;;;;;5013284;28;20022;-51
2021/12/30 12:16:07;;;;;;;0.80;0.70;;;16.00;99.90;;;;;;5014473;28;20105;-52
2021/12/30 12:18:33;;;;;;;0.50;0.50;;;16.10;99.90;;;;;;5012927;28;20185;-55
2021/12/30 12:21:10;;;;;;;0.90;0.60;;;16.10;99.90;;;;;;5014139;28;20026;-51
2021/12/30 12:23:45;;;;;;;0.80;0.70;;;16.10;99.90;;;;;;5012804;28;20025;-54
2021/12/30 12:26:14;;;;;;;0.85;0.60;;;16.20;99.90;;;;;;5013403;28;20029;-52
2021/12/30 12:28:41;;;;;;;2.45;0.60;;;16.20;99.90;;;;;;5014172;28;20018;-58
2021/12/30 12:31:07;;;;;;;0.50;0.50;;;16.30;99.90;;;;;;5012884;28;20037;-58
2021/12/30 12:33:34;;;;;;;0.40;0.40;;;16.40;99.90;;;;;;5014010;28;20484;-56
2021/12/30 12:39:33;;;;;;;1.58;0.50;;;16.60;99.90;;;;;;5014186;28;20041;-56
2021/12/30 12:41:59;;;;;;;0.65;0.50;;;16.60;99.90;;;;;;5013813;28;20018;-55
2021/12/30 12:44:25;;;;;;;0.45;0.40;;;16.50;99.90;;;;;;5013718;28;20028;-54
2021/12/30 12:46:52;;;;;;;0.40;0.40;;;16.50;99.90;;;;;;5012780;28;20026;-53
2021/12/30 12:49:32;;;;;;;0.73;0.30;;;16.40;99.90;;;;;;5012000;28;20044;-51
2021/12/30 12:51:59;;;;;;;0.27;0.23;;;16.40;99.90;;;;;;5012274;28;20059;-57
2021/12/30 12:54:50;;;;;;;0.38;0.30;;;16.30;99.90;;;;;;5013603;28;20030;-55
2021/12/30 12:57:19;;;;;;;0.73;0.13;;;16.20;99.90;;;;;;5006532;28;20389;-54
2021/12/30 12:59:45;;;;;;;0.30;0.28;;;16.10;99.90;;;;;;5013575;28;20083;-55
2021/12/30 13:02:13;;;;;;;1.23;0.22;;;16.00;99.90;;;;;;5012281;28;20018;-51
2021/12/30 13:04:39;;;;;;;0.28;0.10;;;16.00;99.90;;;;;;5012612;28;20021;-52
2021/12/30 13:07:13;;;;;;;0.80;0.20;;;16.00;99.90;;;;;;5013440;28;20030;-54